sensor_id;sensor_type;location;lat;lon;timestamp;P1;durP1;ratioP1;P2;durP2;ratioP2
65936;SDS011;52707;52.086;5.418;2023-08-24T00:01:11;9.88;;;5.38;;
65936;SDS011;52707;52.086;5.418;2023-08-24T00:03:40;11.63;;;5.07;;
65936;SDS011;52707;52.086;5.418;2023-08-24T00:06:06;14.32;;;5.40;;
65936;SDS011;52707;52.086;5.418;2023-08-24T00:08:33;10.63;;;5.15;;
65936;SDS011;52707;52.086;5.418;2023-08-24T00:10:59;11.30;;;4.57;;
65936;SDS011;52707;52.086;5.418;2023-08-24T00:13:26;8.43;;;5.15;;
65936;SDS011;52707;52.086;5.418;2023-08-24T00:15:53;8.48;;;4.75;;
65936;SDS011;52707;52.086;5.418;2023-08-24T00:18:20;8.32;;;4.53;;
65936;SDS011;52707;52.086;5.418;2023-08-24T00:20:48;8.73;;;4.90;;
65936;SDS011;52707;52.086;5.418;2023-08-24T00:23:15;6.05;;;4.72;;
65936;SDS011;52707;52.086;5.418;2023-08-24T00:25:41;5.78;;;4.68;;
65936;SDS011;52707;52.086;5.418;2023-08-24T00:28:07;10.00;;;5.32;;
65936;SDS011;52707;52.086;5.418;2023-08-24T00:30:34;8.57;;;4.68;;
65936;SDS011;52707;52.086;5.418;2023-08-24T00:33:00;8.40;;;4.82;;
65936;SDS011;52707;52.086;5.418;2023-08-24T00:35:27;12.18;;;5.38;;
65936;SDS011;52707;52.086;5.418;2023-08-24T00:37:53;10.13;;;5.80;;
65936;SDS011;52707;52.086;5.418;2023-08-24T00:40:20;11.00;;;5.45;;
65936;SDS011;52707;52.086;5.418;2023-08-24T00:42:46;9.50;;;5.18;;
65936;SDS011;52707;52.086;5.418;2023-08-24T00:45:13;7.30;;;4.55;;
65936;SDS011;52707;52.086;5.418;2023-08-24T00:47:43;12.30;;;5.10;;
65936;SDS011;52707;52.086;5.418;2023-08-24T00:50:10;8.45;;;5.03;;
65936;SDS011;52707;52.086;5.418;2023-08-24T00:52:38;8.63;;;5.05;;
65936;SDS011;52707;52.086;5.418;2023-08-24T00:55:05;7.55;;;5.25;;
65936;SDS011;52707;52.086;5.418;2023-08-24T00:57:32;16.83;;;6.13;;
65936;SDS011;52707;52.086;5.418;2023-08-24T00:59:59;12.38;;;5.07;;
65936;SDS011;52707;52.086;5.418;2023-08-24T01:02:27;13.60;;;5.68;;
65936;SDS011;52707;52.086;5.418;2023-08-24T01:04:53;19.08;;;6.30;;
65936;SDS011;52707;52.086;5.418;2023-08-24T01:07:20;7.28;;;5.63;;
65936;SDS011;52707;52.086;5.418;2023-08-24T01:09:47;6.70;;;5.50;;
65936;SDS011;52707;52.086;5.418;2023-08-24T01:12:21;8.20;;;5.70;;
65936;SDS011;52707;52.086;5.418;2023-08-24T01:14:50;6.35;;;5.50;;
65936;SDS011;52707;52.086;5.418;2023-08-24T01:17:22;9.30;;;5.35;;
65936;SDS011;52707;52.086;5.418;2023-08-24T01:19:48;7.20;;;5.55;;
65936;SDS011;52707;52.086;5.418;2023-08-24T01:27:26;10.60;;;5.07;;
65936;SDS011;52707;52.086;5.418;2023-08-24T01:29:54;11.07;;;5.47;;
65936;SDS011;52707;52.086;5.418;2023-08-24T01:32:23;11.48;;;5.45;;
65936;SDS011;52707;52.086;5.418;2023-08-24T01:34:49;9.93;;;5.25;;
65936;SDS011;52707;52.086;5.418;2023-08-24T01:37:15;7.38;;;5.15;;
65936;SDS011;52707;52.086;5.418;2023-08-24T01:39:45;16.08;;;6.22;;
65936;SDS011;52707;52.086;5.418;2023-08-24T01:42:17;12.60;;;6.32;;
65936;SDS011;52707;52.086;5.418;2023-08-24T01:44:46;12.43;;;5.53;;
65936;SDS011;52707;52.086;5.418;2023-08-24T01:47:13;9.18;;;5.25;;
65936;SDS011;52707;52.086;5.418;2023-08-24T01:49:40;11.30;;;5.05;;
65936;SDS011;52707;52.086;5.418;2023-08-24T01:52:07;11.27;;;6.10;;
65936;SDS011;52707;52.086;5.418;2023-08-24T01:54:34;10.00;;;6.47;;
65936;SDS011;52707;52.086;5.418;2023-08-24T01:57:01;10.05;;;6.00;;
65936;SDS011;52707;52.086;5.418;2023-08-24T01:59:27;8.68;;;5.45;;
65936;SDS011;52707;52.086;5.418;2023-08-24T02:01:54;10.20;;;5.50;;
65936;SDS011;52707;52.086;5.418;2023-08-24T02:04:20;9.48;;;5.88;;
65936;SDS011;52707;52.086;5.418;2023-08-24T02:06:46;7.65;;;5.35;;
65936;SDS011;52707;52.086;5.418;2023-08-24T02:09:13;15.63;;;6.32;;
65936;SDS011;52707;52.086;5.418;2023-08-24T02:11:39;7.38;;;6.22;;
65936;SDS011;52707;52.086;5.418;2023-08-24T02:14:05;8.98;;;6.13;;
65936;SDS011;52707;52.086;5.418;2023-08-24T02:16:32;14.05;;;6.50;;
65936;SDS011;52707;52.086;5.418;2023-08-24T02:18:59;12.13;;;7.00;;
65936;SDS011;52707;52.086;5.418;2023-08-24T02:21:25;12.23;;;6.88;;
65936;SDS011;52707;52.086;5.418;2023-08-24T02:23:52;14.60;;;6.55;;
65936;SDS011;52707;52.086;5.418;2023-08-24T02:26:19;15.10;;;6.78;;
65936;SDS011;52707;52.086;5.418;2023-08-24T02:28:46;10.07;;;6.32;;
65936;SDS011;52707;52.086;5.418;2023-08-24T02:31:13;14.05;;;6.60;;
65936;SDS011;52707;52.086;5.418;2023-08-24T02:33:39;18.52;;;7.47;;
65936;SDS011;52707;52.086;5.418;2023-08-24T02:36:05;9.68;;;6.35;;
65936;SDS011;52707;52.086;5.418;2023-08-24T02:38:32;12.88;;;6.72;;
65936;SDS011;52707;52.086;5.418;2023-08-24T02:41:02;10.95;;;7.03;;
65936;SDS011;52707;52.086;5.418;2023-08-24T02:43:29;10.55;;;6.75;;
65936;SDS011;52707;52.086;5.418;2023-08-24T02:45:59;11.27;;;6.88;;
65936;SDS011;52707;52.086;5.418;2023-08-24T02:48:26;13.43;;;6.60;;
65936;SDS011;52707;52.086;5.418;2023-08-24T02:50:52;24.70;;;7.50;;
65936;SDS011;52707;52.086;5.418;2023-08-24T02:53:19;11.60;;;7.05;;
65936;SDS011;52707;52.086;5.418;2023-08-24T02:55:45;21.83;;;8.38;;
65936;SDS011;52707;52.086;5.418;2023-08-24T02:58:11;20.30;;;8.18;;
65936;SDS011;52707;52.086;5.418;2023-08-24T03:00:38;12.32;;;7.90;;
65936;SDS011;52707;52.086;5.418;2023-08-24T03:03:04;15.23;;;7.75;;
65936;SDS011;52707;52.086;5.418;2023-08-24T03:05:32;22.75;;;9.32;;
65936;SDS011;52707;52.086;5.418;2023-08-24T03:07:58;18.98;;;8.45;;
65936;SDS011;52707;52.086;5.418;2023-08-24T03:10:25;13.88;;;7.97;;
65936;SDS011;52707;52.086;5.418;2023-08-24T03:12:51;12.65;;;8.00;;
65936;SDS011;52707;52.086;5.418;2023-08-24T03:15:18;17.20;;;9.02;;
65936;SDS011;52707;52.086;5.418;2023-08-24T03:17:44;19.55;;;8.20;;
65936;SDS011;52707;52.086;5.418;2023-08-24T03:20:11;16.20;;;8.50;;
65936;SDS011;52707;52.086;5.418;2023-08-24T03:22:37;20.58;;;8.50;;
65936;SDS011;52707;52.086;5.418;2023-08-24T03:25:04;13.43;;;7.82;;
65936;SDS011;52707;52.086;5.418;2023-08-24T03:27:30;13.60;;;8.30;;
65936;SDS011;52707;52.086;5.418;2023-08-24T03:29:57;14.98;;;8.20;;
65936;SDS011;52707;52.086;5.418;2023-08-24T03:32:23;11.48;;;8.63;;
65936;SDS011;52707;52.086;5.418;2023-08-24T03:34:50;15.23;;;8.68;;
65936;SDS011;52707;52.086;5.418;2023-08-24T03:37:16;14.35;;;9.05;;
65936;SDS011;52707;52.086;5.418;2023-08-24T03:39:42;15.00;;;8.57;;
65936;SDS011;52707;52.086;5.418;2023-08-24T03:42:09;13.65;;;8.90;;
65936;SDS011;52707;52.086;5.418;2023-08-24T03:44:35;15.18;;;9.45;;
65936;SDS011;52707;52.086;5.418;2023-08-24T03:47:02;15.80;;;8.73;;
65936;SDS011;52707;52.086;5.418;2023-08-24T03:49:29;19.40;;;8.80;;
65936;SDS011;52707;52.086;5.418;2023-08-24T03:51:55;13.27;;;8.63;;
65936;SDS011;52707;52.086;5.418;2023-08-24T03:54:21;17.92;;;9.52;;
65936;SDS011;52707;52.086;5.418;2023-08-24T03:56:49;12.73;;;9.23;;
65936;SDS011;52707;52.086;5.418;2023-08-24T03:59:15;14.40;;;9.32;;
65936;SDS011;52707;52.086;5.418;2023-08-24T04:01:42;17.05;;;10.02;;
65936;SDS011;52707;52.086;5.418;2023-08-24T04:04:08;17.33;;;10.18;;
65936;SDS011;52707;52.086;5.418;2023-08-24T04:06:34;19.42;;;9.55;;
65936;SDS011;52707;52.086;5.418;2023-08-24T04:09:02;20.67;;;9.35;;
65936;SDS011;52707;52.086;5.418;2023-08-24T04:11:28;14.07;;;9.02;;
65936;SDS011;52707;52.086;5.418;2023-08-24T04:13:55;14.25;;;8.77;;
65936;SDS011;52707;52.086;5.418;2023-08-24T04:16:21;23.20;;;8.65;;
65936;SDS011;52707;52.086;5.418;2023-08-24T04:18:47;14.48;;;8.73;;
65936;SDS011;52707;52.086;5.418;2023-08-24T04:21:14;20.75;;;9.95;;
65936;SDS011;52707;52.086;5.418;2023-08-24T04:23:40;15.23;;;9.43;;
65936;SDS011;52707;52.086;5.418;2023-08-24T04:26:11;16.02;;;9.82;;
65936;SDS011;52707;52.086;5.418;2023-08-24T04:28:38;15.48;;;10.35;;
65936;SDS011;52707;52.086;5.418;2023-08-24T04:31:04;17.88;;;9.43;;
65936;SDS011;52707;52.086;5.418;2023-08-24T04:33:30;11.95;;;8.65;;
65936;SDS011;52707;52.086;5.418;2023-08-24T04:35:58;17.30;;;9.05;;
65936;SDS011;52707;52.086;5.418;2023-08-24T04:38:24;13.05;;;8.60;;
65936;SDS011;52707;52.086;5.418;2023-08-24T04:40:51;14.80;;;8.68;;
65936;SDS011;52707;52.086;5.418;2023-08-24T04:43:18;18.45;;;9.10;;
65936;SDS011;52707;52.086;5.418;2023-08-24T04:45:45;21.90;;;9.48;;
65936;SDS011;52707;52.086;5.418;2023-08-24T04:48:12;21.02;;;8.82;;
65936;SDS011;52707;52.086;5.418;2023-08-24T04:50:38;14.13;;;9.38;;
65936;SDS011;52707;52.086;5.418;2023-08-24T04:53:05;14.95;;;9.07;;
65936;SDS011;52707;52.086;5.418;2023-08-24T04:55:32;12.75;;;8.80;;
65936;SDS011;52707;52.086;5.418;2023-08-24T04:57:58;14.98;;;9.18;;
65936;SDS011;52707;52.086;5.418;2023-08-24T05:00:24;12.88;;;9.68;;
65936;SDS011;52707;52.086;5.418;2023-08-24T05:02:51;20.40;;;10.30;;
65936;SDS011;52707;52.086;5.418;2023-08-24T05:05:18;19.13;;;10.70;;
65936;SDS011;52707;52.086;5.418;2023-08-24T05:07:44;20.42;;;9.55;;
65936;SDS011;52707;52.086;5.418;2023-08-24T05:10:11;12.90;;;10.20;;
65936;SDS011;52707;52.086;5.418;2023-08-24T05:12:37;12.25;;;8.98;;
65936;SDS011;52707;52.086;5.418;2023-08-24T05:15:04;14.10;;;9.18;;
65936;SDS011;52707;52.086;5.418;2023-08-24T05:17:30;17.80;;;9.27;;
65936;SDS011;52707;52.086;5.418;2023-08-24T05:19:58;11.85;;;9.02;;
65936;SDS011;52707;52.086;5.418;2023-08-24T05:22:24;18.55;;;9.73;;
65936;SDS011;52707;52.086;5.418;2023-08-24T05:24:51;23.05;;;10.38;;
65936;SDS011;52707;52.086;5.418;2023-08-24T05:27:17;17.33;;;9.75;;
65936;SDS011;52707;52.086;5.418;2023-08-24T05:29:44;15.07;;;9.40;;
65936;SDS011;52707;52.086;5.418;2023-08-24T05:32:10;21.65;;;10.27;;
65936;SDS011;52707;52.086;5.418;2023-08-24T05:34:36;13.35;;;10.05;;
65936;SDS011;52707;52.086;5.418;2023-08-24T05:37:03;16.50;;;10.60;;
65936;SDS011;52707;52.086;5.418;2023-08-24T05:39:29;22.35;;;10.25;;
65936;SDS011;52707;52.086;5.418;2023-08-24T05:41:55;19.75;;;9.25;;
65936;SDS011;52707;52.086;5.418;2023-08-24T05:44:22;16.33;;;10.32;;
65936;SDS011;52707;52.086;5.418;2023-08-24T05:46:48;19.30;;;9.93;;
65936;SDS011;52707;52.086;5.418;2023-08-24T05:49:15;23.58;;;10.38;;
65936;SDS011;52707;52.086;5.418;2023-08-24T05:51:41;20.23;;;10.15;;
65936;SDS011;52707;52.086;5.418;2023-08-24T05:54:07;19.75;;;10.02;;
65936;SDS011;52707;52.086;5.418;2023-08-24T05:56:34;21.08;;;9.63;;
65936;SDS011;52707;52.086;5.418;2023-08-24T05:59:00;23.63;;;9.68;;
65936;SDS011;52707;52.086;5.418;2023-08-24T06:01:30;27.35;;;9.80;;
65936;SDS011;52707;52.086;5.418;2023-08-24T06:03:56;20.85;;;10.10;;
65936;SDS011;52707;52.086;5.418;2023-08-24T06:06:23;19.38;;;10.18;;
65936;SDS011;52707;52.086;5.418;2023-08-24T06:08:49;17.52;;;10.15;;
65936;SDS011;52707;52.086;5.418;2023-08-24T06:11:15;19.00;;;9.75;;
65936;SDS011;52707;52.086;5.418;2023-08-24T06:13:42;16.75;;;9.73;;
65936;SDS011;52707;52.086;5.418;2023-08-24T06:16:08;12.43;;;8.75;;
65936;SDS011;52707;52.086;5.418;2023-08-24T06:18:35;23.52;;;9.63;;
65936;SDS011;52707;52.086;5.418;2023-08-24T06:21:01;20.23;;;9.02;;
65936;SDS011;52707;52.086;5.418;2023-08-24T06:23:27;27.35;;;10.05;;
65936;SDS011;52707;52.086;5.418;2023-08-24T06:25:54;23.52;;;9.93;;
65936;SDS011;52707;52.086;5.418;2023-08-24T06:28:20;19.90;;;9.55;;
65936;SDS011;52707;52.086;5.418;2023-08-24T06:30:46;18.02;;;9.50;;
65936;SDS011;52707;52.086;5.418;2023-08-24T06:33:16;22.02;;;10.02;;
65936;SDS011;52707;52.086;5.418;2023-08-24T06:35:42;24.65;;;9.82;;
65936;SDS011;52707;52.086;5.418;2023-08-24T06:38:09;20.42;;;10.05;;
65936;SDS011;52707;52.086;5.418;2023-08-24T06:40:35;19.95;;;10.27;;
65936;SDS011;52707;52.086;5.418;2023-08-24T06:43:02;17.27;;;9.98;;
65936;SDS011;52707;52.086;5.418;2023-08-24T06:45:28;19.50;;;9.98;;
65936;SDS011;52707;52.086;5.418;2023-08-24T06:47:54;28.30;;;10.27;;
65936;SDS011;52707;52.086;5.418;2023-08-24T06:50:21;20.50;;;10.23;;
65936;SDS011;52707;52.086;5.418;2023-08-24T06:52:47;15.02;;;10.10;;
65936;SDS011;52707;52.086;5.418;2023-08-24T06:55:14;17.50;;;10.77;;
65936;SDS011;52707;52.086;5.418;2023-08-24T06:57:40;16.00;;;10.35;;
65936;SDS011;52707;52.086;5.418;2023-08-24T07:00:07;17.55;;;10.20;;
65936;SDS011;52707;52.086;5.418;2023-08-24T07:02:35;15.48;;;10.65;;
65936;SDS011;52707;52.086;5.418;2023-08-24T07:05:03;18.13;;;10.65;;
65936;SDS011;52707;52.086;5.418;2023-08-24T07:07:31;15.55;;;10.90;;
65936;SDS011;52707;52.086;5.418;2023-08-24T07:09:57;16.95;;;10.43;;
65936;SDS011;52707;52.086;5.418;2023-08-24T07:12:23;29.08;;;11.25;;
65936;SDS011;52707;52.086;5.418;2023-08-24T07:14:50;20.13;;;10.77;;
65936;SDS011;52707;52.086;5.418;2023-08-24T07:17:16;19.73;;;11.10;;
65936;SDS011;52707;52.086;5.418;2023-08-24T07:19:43;19.90;;;10.68;;
65936;SDS011;52707;52.086;5.418;2023-08-24T07:22:09;23.67;;;11.20;;
65936;SDS011;52707;52.086;5.418;2023-08-24T07:24:35;17.70;;;10.70;;
65936;SDS011;52707;52.086;5.418;2023-08-24T07:27:11;19.60;;;11.10;;
65936;SDS011;52707;52.086;5.418;2023-08-24T07:29:37;20.67;;;11.05;;
65936;SDS011;52707;52.086;5.418;2023-08-24T07:32:04;22.58;;;11.07;;
65936;SDS011;52707;52.086;5.418;2023-08-24T07:34:30;15.60;;;10.45;;
65936;SDS011;52707;52.086;5.418;2023-08-24T07:36:57;19.73;;;10.98;;
65936;SDS011;52707;52.086;5.418;2023-08-24T07:39:23;18.38;;;11.48;;
65936;SDS011;52707;52.086;5.418;2023-08-24T07:41:49;18.83;;;10.30;;
65936;SDS011;52707;52.086;5.418;2023-08-24T07:44:16;16.70;;;10.38;;
65936;SDS011;52707;52.086;5.418;2023-08-24T07:46:42;17.08;;;10.30;;
65936;SDS011;52707;52.086;5.418;2023-08-24T07:49:09;20.88;;;11.90;;
65936;SDS011;52707;52.086;5.418;2023-08-24T07:51:35;19.40;;;11.30;;
65936;SDS011;52707;52.086;5.418;2023-08-24T07:54:02;19.13;;;11.23;;
65936;SDS011;52707;52.086;5.418;2023-08-24T07:56:30;18.95;;;10.68;;
65936;SDS011;52707;52.086;5.418;2023-08-24T07:58:56;19.17;;;11.02;;
65936;SDS011;52707;52.086;5.418;2023-08-24T08:01:23;20.48;;;11.23;;
65936;SDS011;52707;52.086;5.418;2023-08-24T08:03:49;25.17;;;11.02;;
65936;SDS011;52707;52.086;5.418;2023-08-24T08:06:16;20.75;;;9.35;;
65936;SDS011;52707;52.086;5.418;2023-08-24T08:08:42;18.83;;;9.98;;
65936;SDS011;52707;52.086;5.418;2023-08-24T08:11:10;13.82;;;10.10;;
65936;SDS011;52707;52.086;5.418;2023-08-24T08:13:37;17.02;;;9.82;;
65936;SDS011;52707;52.086;5.418;2023-08-24T08:16:03;13.25;;;10.32;;
65936;SDS011;52707;52.086;5.418;2023-08-24T08:18:30;15.10;;;10.05;;
65936;SDS011;52707;52.086;5.418;2023-08-24T08:20:57;17.77;;;9.38;;
65936;SDS011;52707;52.086;5.418;2023-08-24T08:23:24;17.38;;;9.35;;
65936;SDS011;52707;52.086;5.418;2023-08-24T08:25:50;19.88;;;8.93;;
65936;SDS011;52707;52.086;5.418;2023-08-24T08:28:17;19.15;;;9.48;;
65936;SDS011;52707;52.086;5.418;2023-08-24T08:30:47;18.45;;;9.43;;
65936;SDS011;52707;52.086;5.418;2023-08-24T08:33:14;19.60;;;9.25;;
65936;SDS011;52707;52.086;5.418;2023-08-24T08:35:41;15.45;;;9.02;;
65936;SDS011;52707;52.086;5.418;2023-08-24T08:38:07;19.55;;;9.48;;
65936;SDS011;52707;52.086;5.418;2023-08-24T08:40:36;16.48;;;8.27;;
65936;SDS011;52707;52.086;5.418;2023-08-24T08:43:03;16.30;;;8.02;;
65936;SDS011;52707;52.086;5.418;2023-08-24T08:45:29;13.52;;;8.25;;
65936;SDS011;52707;52.086;5.418;2023-08-24T08:47:56;24.02;;;10.18;;
65936;SDS011;52707;52.086;5.418;2023-08-24T08:50:23;15.73;;;8.80;;
65936;SDS011;52707;52.086;5.418;2023-08-24T08:52:50;22.23;;;8.85;;
65936;SDS011;52707;52.086;5.418;2023-08-24T08:55:18;16.00;;;8.32;;
65936;SDS011;52707;52.086;5.418;2023-08-24T08:57:48;13.52;;;7.80;;
65936;SDS011;52707;52.086;5.418;2023-08-24T09:00:15;20.17;;;7.85;;
65936;SDS011;52707;52.086;5.418;2023-08-24T09:02:43;17.38;;;7.93;;
65936;SDS011;52707;52.086;5.418;2023-08-24T09:05:11;16.98;;;7.97;;
65936;SDS011;52707;52.086;5.418;2023-08-24T09:07:41;17.90;;;7.40;;
65936;SDS011;52707;52.086;5.418;2023-08-24T09:10:08;17.95;;;8.85;;
65936;SDS011;52707;52.086;5.418;2023-08-24T09:12:34;15.73;;;8.90;;
65936;SDS011;52707;52.086;5.418;2023-08-24T09:15:04;14.82;;;7.88;;
65936;SDS011;52707;52.086;5.418;2023-08-24T09:17:32;11.63;;;7.97;;
65936;SDS011;52707;52.086;5.418;2023-08-24T09:20:00;12.25;;;8.30;;
65936;SDS011;52707;52.086;5.418;2023-08-24T09:22:26;12.98;;;7.97;;
65936;SDS011;52707;52.086;5.418;2023-08-24T09:24:52;12.63;;;6.22;;
65936;SDS011;52707;52.086;5.418;2023-08-24T09:27:21;13.88;;;7.45;;
65936;SDS011;52707;52.086;5.418;2023-08-24T09:29:51;13.73;;;8.32;;
65936;SDS011;52707;52.086;5.418;2023-08-24T09:32:21;15.23;;;7.80;;
65936;SDS011;52707;52.086;5.418;2023-08-24T09:34:48;15.57;;;8.43;;
65936;SDS011;52707;52.086;5.418;2023-08-24T09:37:15;16.90;;;8.23;;
65936;SDS011;52707;52.086;5.418;2023-08-24T09:39:42;15.60;;;8.18;;
65936;SDS011;52707;52.086;5.418;2023-08-24T09:42:08;13.75;;;8.38;;
65936;SDS011;52707;52.086;5.418;2023-08-24T09:44:35;21.02;;;7.80;;
65936;SDS011;52707;52.086;5.418;2023-08-24T09:47:01;20.30;;;9.07;;
65936;SDS011;52707;52.086;5.418;2023-08-24T09:49:28;15.10;;;8.75;;
65936;SDS011;52707;52.086;5.418;2023-08-24T09:51:55;27.42;;;8.05;;
65936;SDS011;52707;52.086;5.418;2023-08-24T09:54:26;18.90;;;8.23;;
65936;SDS011;52707;52.086;5.418;2023-08-24T09:56:52;18.67;;;8.65;;
65936;SDS011;52707;52.086;5.418;2023-08-24T09:59:20;23.10;;;8.88;;
65936;SDS011;52707;52.086;5.418;2023-08-24T10:01:51;16.90;;;7.78;;
65936;SDS011;52707;52.086;5.418;2023-08-24T10:04:21;14.07;;;8.75;;
65936;SDS011;52707;52.086;5.418;2023-08-24T10:06:49;10.57;;;8.40;;
65936;SDS011;52707;52.086;5.418;2023-08-24T10:09:30;12.85;;;7.93;;
65936;SDS011;52707;52.086;5.418;2023-08-24T10:11:58;16.00;;;8.27;;
65936;SDS011;52707;52.086;5.418;2023-08-24T10:16:51;18.98;;;8.95;;
65936;SDS011;52707;52.086;5.418;2023-08-24T10:19:19;17.45;;;9.75;;
65936;SDS011;52707;52.086;5.418;2023-08-24T10:21:46;22.10;;;10.52;;
65936;SDS011;52707;52.086;5.418;2023-08-24T10:24:12;17.52;;;10.15;;
65936;SDS011;52707;52.086;5.418;2023-08-24T10:26:40;18.98;;;9.48;;
65936;SDS011;52707;52.086;5.418;2023-08-24T10:29:07;19.88;;;10.35;;
65936;SDS011;52707;52.086;5.418;2023-08-24T10:31:34;17.83;;;10.27;;
65936;SDS011;52707;52.086;5.418;2023-08-24T10:34:00;23.52;;;10.80;;
65936;SDS011;52707;52.086;5.418;2023-08-24T10:36:27;24.27;;;11.50;;
65936;SDS011;52707;52.086;5.418;2023-08-24T10:38:55;29.60;;;11.77;;
65936;SDS011;52707;52.086;5.418;2023-08-24T10:41:25;22.38;;;11.18;;
65936;SDS011;52707;52.086;5.418;2023-08-24T10:43:52;25.38;;;10.55;;
65936;SDS011;52707;52.086;5.418;2023-08-24T10:46:19;16.52;;;11.23;;
65936;SDS011;52707;52.086;5.418;2023-08-24T10:56:24;22.23;;;10.55;;
65936;SDS011;52707;52.086;5.418;2023-08-24T11:01:40;18.80;;;10.50;;
65936;SDS011;52707;52.086;5.418;2023-08-24T11:04:07;13.82;;;9.73;;
65936;SDS011;52707;52.086;5.418;2023-08-24T11:06:52;21.50;;;10.02;;
65936;SDS011;52707;52.086;5.418;2023-08-24T11:09:19;25.45;;;10.93;;
65936;SDS011;52707;52.086;5.418;2023-08-24T11:11:56;19.80;;;10.63;;
65936;SDS011;52707;52.086;5.418;2023-08-24T11:14:23;20.17;;;10.48;;
65936;SDS011;52707;52.086;5.418;2023-08-24T11:16:52;22.27;;;10.43;;
65936;SDS011;52707;52.086;5.418;2023-08-24T11:19:19;28.08;;;10.48;;
65936;SDS011;52707;52.086;5.418;2023-08-24T11:21:46;14.82;;;10.23;;
65936;SDS011;52707;52.086;5.418;2023-08-24T11:24:13;19.83;;;10.73;;
65936;SDS011;52707;52.086;5.418;2023-08-24T11:26:41;20.20;;;10.95;;
65936;SDS011;52707;52.086;5.418;2023-08-24T11:29:08;21.58;;;10.75;;
65936;SDS011;52707;52.086;5.418;2023-08-24T11:31:35;14.95;;;9.88;;
65936;SDS011;52707;52.086;5.418;2023-08-24T11:34:01;19.77;;;11.57;;
65936;SDS011;52707;52.086;5.418;2023-08-24T11:36:29;20.42;;;12.15;;
65936;SDS011;52707;52.086;5.418;2023-08-24T11:38:59;22.10;;;11.48;;
65936;SDS011;52707;52.086;5.418;2023-08-24T11:43:59;22.38;;;12.27;;
65936;SDS011;52707;52.086;5.418;2023-08-24T11:46:36;19.65;;;11.85;;
65936;SDS011;52707;52.086;5.418;2023-08-24T11:49:06;23.77;;;11.57;;
65936;SDS011;52707;52.086;5.418;2023-08-24T11:51:32;20.20;;;12.10;;
65936;SDS011;52707;52.086;5.418;2023-08-24T11:54:09;22.58;;;11.82;;
65936;SDS011;52707;52.086;5.418;2023-08-24T11:56:41;23.88;;;12.63;;
65936;SDS011;52707;52.086;5.418;2023-08-24T11:59:11;21.58;;;12.60;;
65936;SDS011;52707;52.086;5.418;2023-08-24T12:01:39;21.73;;;12.55;;
65936;SDS011;52707;52.086;5.418;2023-08-24T12:04:05;21.92;;;11.30;;
65936;SDS011;52707;52.086;5.418;2023-08-24T12:06:32;24.40;;;12.60;;
65936;SDS011;52707;52.086;5.418;2023-08-24T12:08:58;20.13;;;12.18;;
65936;SDS011;52707;52.086;5.418;2023-08-24T12:11:25;23.33;;;12.23;;
65936;SDS011;52707;52.086;5.418;2023-08-24T12:13:53;18.75;;;11.23;;
65936;SDS011;52707;52.086;5.418;2023-08-24T12:16:20;23.80;;;12.48;;
65936;SDS011;52707;52.086;5.418;2023-08-24T12:18:47;19.27;;;12.05;;
65936;SDS011;52707;52.086;5.418;2023-08-24T12:21:14;31.63;;;11.73;;
65936;SDS011;52707;52.086;5.418;2023-08-24T12:23:41;22.95;;;12.10;;
65936;SDS011;52707;52.086;5.418;2023-08-24T12:26:07;20.60;;;12.48;;
65936;SDS011;52707;52.086;5.418;2023-08-24T12:28:34;23.95;;;11.55;;
65936;SDS011;52707;52.086;5.418;2023-08-24T12:31:01;19.67;;;12.15;;
65936;SDS011;52707;52.086;5.418;2023-08-24T12:33:30;20.77;;;13.05;;
65936;SDS011;52707;52.086;5.418;2023-08-24T12:35:57;21.15;;;11.90;;
65936;SDS011;52707;52.086;5.418;2023-08-24T12:38:25;28.90;;;12.77;;
65936;SDS011;52707;52.086;5.418;2023-08-24T12:40:52;23.05;;;13.43;;
65936;SDS011;52707;52.086;5.418;2023-08-24T12:43:19;20.27;;;12.93;;
65936;SDS011;52707;52.086;5.418;2023-08-24T12:45:45;23.63;;;12.85;;
65936;SDS011;52707;52.086;5.418;2023-08-24T12:48:12;20.35;;;12.27;;
65936;SDS011;52707;52.086;5.418;2023-08-24T12:50:38;21.67;;;12.23;;
65936;SDS011;52707;52.086;5.418;2023-08-24T12:53:05;25.10;;;12.77;;
65936;SDS011;52707;52.086;5.418;2023-08-24T12:55:32;25.13;;;12.48;;
65936;SDS011;52707;52.086;5.418;2023-08-24T12:57:59;22.95;;;11.95;;
65936;SDS011;52707;52.086;5.418;2023-08-24T13:00:26;21.80;;;11.35;;
65936;SDS011;52707;52.086;5.418;2023-08-24T13:02:55;16.70;;;10.95;;
65936;SDS011;52707;52.086;5.418;2023-08-24T13:05:21;22.85;;;11.27;;
65936;SDS011;52707;52.086;5.418;2023-08-24T13:07:48;20.85;;;10.07;;
65936;SDS011;52707;52.086;5.418;2023-08-24T13:10:15;21.35;;;11.13;;
65936;SDS011;52707;52.086;5.418;2023-08-24T13:12:42;18.05;;;8.70;;
65936;SDS011;52707;52.086;5.418;2023-08-24T13:15:09;17.05;;;9.50;;
65936;SDS011;52707;52.086;5.418;2023-08-24T13:17:36;28.80;;;9.18;;
65936;SDS011;52707;52.086;5.418;2023-08-24T13:20:02;17.65;;;8.93;;
65936;SDS011;52707;52.086;5.418;2023-08-24T13:22:29;15.40;;;9.80;;
65936;SDS011;52707;52.086;5.418;2023-08-24T13:24:55;23.33;;;8.43;;
65936;SDS011;52707;52.086;5.418;2023-08-24T13:27:23;12.27;;;8.18;;
65936;SDS011;52707;52.086;5.418;2023-08-24T13:29:49;18.17;;;8.68;;
65936;SDS011;52707;52.086;5.418;2023-08-24T13:32:15;14.52;;;7.38;;
65936;SDS011;52707;52.086;5.418;2023-08-24T13:34:42;15.93;;;7.75;;
65936;SDS011;52707;52.086;5.418;2023-08-24T13:37:09;20.38;;;9.10;;
65936;SDS011;52707;52.086;5.418;2023-08-24T13:39:35;21.40;;;10.02;;
65936;SDS011;52707;52.086;5.418;2023-08-24T13:42:01;24.13;;;9.23;;
65936;SDS011;52707;52.086;5.418;2023-08-24T13:44:28;14.80;;;8.75;;
65936;SDS011;52707;52.086;5.418;2023-08-24T13:46:55;15.50;;;7.90;;
65936;SDS011;52707;52.086;5.418;2023-08-24T13:49:21;17.25;;;9.27;;
65936;SDS011;52707;52.086;5.418;2023-08-24T13:52:06;19.85;;;11.07;;
65936;SDS011;52707;52.086;5.418;2023-08-24T13:54:32;23.30;;;11.75;;
65936;SDS011;52707;52.086;5.418;2023-08-24T13:56:58;22.17;;;10.93;;
65936;SDS011;52707;52.086;5.418;2023-08-24T13:59:26;23.58;;;11.43;;
65936;SDS011;52707;52.086;5.418;2023-08-24T14:01:53;22.75;;;11.63;;
65936;SDS011;52707;52.086;5.418;2023-08-24T14:04:19;19.52;;;11.82;;
65936;SDS011;52707;52.086;5.418;2023-08-24T14:06:46;24.35;;;13.65;;
65936;SDS011;52707;52.086;5.418;2023-08-24T14:09:14;23.80;;;12.80;;
65936;SDS011;52707;52.086;5.418;2023-08-24T14:11:41;21.98;;;12.90;;
65936;SDS011;52707;52.086;5.418;2023-08-24T14:14:07;26.17;;;14.35;;
65936;SDS011;52707;52.086;5.418;2023-08-24T14:16:34;24.33;;;13.95;;
65936;SDS011;52707;52.086;5.418;2023-08-24T14:19:00;25.27;;;14.48;;
65936;SDS011;52707;52.086;5.418;2023-08-24T14:21:30;24.85;;;14.88;;
65936;SDS011;52707;52.086;5.418;2023-08-24T14:24:10;29.90;;;15.43;;
65936;SDS011;52707;52.086;5.418;2023-08-24T14:26:36;20.70;;;15.55;;
65936;SDS011;52707;52.086;5.418;2023-08-24T14:29:05;27.03;;;16.10;;
65936;SDS011;52707;52.086;5.418;2023-08-24T14:31:31;22.90;;;13.85;;
65936;SDS011;52707;52.086;5.418;2023-08-24T14:33:58;21.85;;;14.05;;
65936;SDS011;52707;52.086;5.418;2023-08-24T14:36:24;23.38;;;13.35;;
65936;SDS011;52707;52.086;5.418;2023-08-24T14:38:50;23.63;;;14.00;;
65936;SDS011;52707;52.086;5.418;2023-08-24T14:41:20;18.85;;;13.27;;
65936;SDS011;52707;52.086;5.418;2023-08-24T14:43:46;24.55;;;13.10;;
65936;SDS011;52707;52.086;5.418;2023-08-24T14:46:13;24.85;;;12.40;;
65936;SDS011;52707;52.086;5.418;2023-08-24T14:48:40;29.30;;;12.38;;
65936;SDS011;52707;52.086;5.418;2023-08-24T14:51:06;18.52;;;12.18;;